sensor_id;sensor_type;location;lat;lon;timestamp;temperature;humidity
48206;DHT22;33995;48.202;16.260;2023-11-22T00:01:07;7.80;99.90
48206;DHT22;33995;48.202;16.260;2023-11-22T00:03:34;7.80;99.90
48206;DHT22;33995;48.202;16.260;2023-11-22T00:06:01;7.90;99.90
48206;DHT22;33995;48.202;16.260;2023-11-22T00:08:28;7.90;99.90
48206;DHT22;33995;48.202;16.260;2023-11-22T00:10:58;7.80;99.90
48206;DHT22;33995;48.202;16.260;2023-11-22T00:13:26;7.90;99.90
48206;DHT22;33995;48.202;16.260;2023-11-22T00:15:53;7.80;99.90
48206;DHT22;33995;48.202;16.260;2023-11-22T00:18:20;7.70;99.90
48206;DHT22;33995;48.202;16.260;2023-11-22T00:20:47;7.80;99.90
48206;DHT22;33995;48.202;16.260;2023-11-22T00:23:16;7.70;99.90
48206;DHT22;33995;48.202;16.260;2023-11-22T00:25:43;7.70;99.90
48206;DHT22;33995;48.202;16.260;2023-11-22T00:28:10;7.90;99.90
48206;DHT22;33995;48.202;16.260;2023-11-22T00:30:38;7.80;99.90
48206;DHT22;33995;48.202;16.260;2023-11-22T00:33:06;7.80;99.90
48206;DHT22;33995;48.202;16.260;2023-11-22T00:35:33;7.80;99.90
48206;DHT22;33995;48.202;16.260;2023-11-22T00:38:00;7.80;99.90
48206;DHT22;33995;48.202;16.260;2023-11-22T00:40:28;7.80;99.90
48206;DHT22;33995;48.202;16.260;2023-11-22T00:42:55;7.80;99.90
48206;DHT22;33995;48.202;16.260;2023-11-22T00:45:22;7.70;99.90
48206;DHT22;33995;48.202;16.260;2023-11-22T00:47:49;7.70;99.90
48206;DHT22;33995;48.202;16.260;2023-11-22T00:50:17;7.60;99.90
48206;DHT22;33995;48.202;16.260;2023-11-22T00:52:47;7.50;99.90
48206;DHT22;33995;48.202;16.260;2023-11-22T00:55:15;7.50;99.90
48206;DHT22;33995;48.202;16.260;2023-11-22T00:57:42;7.40;99.90
48206;DHT22;33995;48.202;16.260;2023-11-22T01:00:10;7.40;99.90
48206;DHT22;33995;48.202;16.260;2023-11-22T01:02:39;7.30;99.90
48206;DHT22;33995;48.202;16.260;2023-11-22T01:05:07;7.30;99.90
48206;DHT22;33995;48.202;16.260;2023-11-22T01:07:38;7.30;99.90
48206;DHT22;33995;48.202;16.260;2023-11-22T01:10:05;7.20;99.90
48206;DHT22;33995;48.202;16.260;2023-11-22T01:12:33;7.30;99.90
48206;DHT22;33995;48.202;16.260;2023-11-22T01:15:00;7.20;99.90
48206;DHT22;33995;48.202;16.260;2023-11-22T01:17:27;7.20;99.90
48206;DHT22;33995;48.202;16.260;2023-11-22T01:19:54;6.90;99.90
48206;DHT22;33995;48.202;16.260;2023-11-22T01:22:21;6.90;99.90
48206;DHT22;33995;48.202;16.260;2023-11-22T01:24:48;6.90;99.90
48206;DHT22;33995;48.202;16.260;2023-11-22T01:27:17;6.70;99.90
48206;DHT22;33995;48.202;16.260;2023-11-22T01:29:44;7.10;99.90
48206;DHT22;33995;48.202;16.260;2023-11-22T01:32:12;6.80;99.90
48206;DHT22;33995;48.202;16.260;2023-11-22T01:34:39;6.70;99.90
48206;DHT22;33995;48.202;16.260;2023-11-22T01:37:06;6.60;99.90
48206;DHT22;33995;48.202;16.260;2023-11-22T01:39:33;6.60;99.90
48206;DHT22;33995;48.202;16.260;2023-11-22T01:42:00;6.50;99.90
48206;DHT22;33995;48.202;16.260;2023-11-22T01:44:27;6.30;99.90
48206;DHT22;33995;48.202;16.260;2023-11-22T01:46:54;6.20;99.90
48206;DHT22;33995;48.202;16.260;2023-11-22T01:49:22;6.30;99.90
48206;DHT22;33995;48.202;16.260;2023-11-22T01:51:50;6.20;99.90
48206;DHT22;33995;48.202;16.260;2023-11-22T01:54:18;6.20;99.90
48206;DHT22;33995;48.202;16.260;2023-11-22T01:56:48;6.20;99.90
48206;DHT22;33995;48.202;16.260;2023-11-22T01:59:16;6.20;99.90
48206;DHT22;33995;48.202;16.260;2023-11-22T02:01:44;6.30;99.90
48206;DHT22;33995;48.202;16.260;2023-11-22T02:04:12;6.10;99.90
48206;DHT22;33995;48.202;16.260;2023-11-22T02:06:40;6.10;99.90
48206;DHT22;33995;48.202;16.260;2023-11-22T02:09:07;6.20;99.90
48206;DHT22;33995;48.202;16.260;2023-11-22T02:11:40;5.90;99.90
48206;DHT22;33995;48.202;16.260;2023-11-22T02:14:09;6.00;99.90
48206;DHT22;33995;48.202;16.260;2023-11-22T02:16:37;6.10;99.90
48206;DHT22;33995;48.202;16.260;2023-11-22T02:19:06;6.00;99.90
48206;DHT22;33995;48.202;16.260;2023-11-22T02:21:34;5.90;99.90
48206;DHT22;33995;48.202;16.260;2023-11-22T02:24:01;5.90;99.90
48206;DHT22;33995;48.202;16.260;2023-11-22T02:26:28;5.90;99.90
48206;DHT22;33995;48.202;16.260;2023-11-22T02:28:57;5.90;99.90
48206;DHT22;33995;48.202;16.260;2023-11-22T02:31:26;5.80;99.90
48206;DHT22;33995;48.202;16.260;2023-11-22T02:33:54;5.90;99.90
48206;DHT22;33995;48.202;16.260;2023-11-22T02:36:25;5.90;99.90
48206;DHT22;33995;48.202;16.260;2023-11-22T02:38:52;6.00;99.90
48206;DHT22;33995;48.202;16.260;2023-11-22T02:41:20;5.90;99.90
48206;DHT22;33995;48.202;16.260;2023-11-22T02:43:47;5.80;99.90
48206;DHT22;33995;48.202;16.260;2023-11-22T02:46:16;5.80;99.90
48206;DHT22;33995;48.202;16.260;2023-11-22T02:48:43;5.80;99.90
48206;DHT22;33995;48.202;16.260;2023-11-22T02:51:12;5.80;99.90
48206;DHT22;33995;48.202;16.260;2023-11-22T02:53:40;5.80;99.90
48206;DHT22;33995;48.202;16.260;2023-11-22T02:56:11;5.90;99.90
48206;DHT22;33995;48.202;16.260;2023-11-22T02:58:38;6.00;99.90
48206;DHT22;33995;48.202;16.260;2023-11-22T03:04:50;5.80;99.90
48206;DHT22;33995;48.202;16.260;2023-11-22T03:07:17;5.80;99.90
48206;DHT22;33995;48.202;16.260;2023-11-22T03:09:44;5.90;99.90
48206;DHT22;33995;48.202;16.260;2023-11-22T03:12:13;5.80;99.90
48206;DHT22;33995;48.202;16.260;2023-11-22T03:14:42;5.80;99.90
48206;DHT22;33995;48.202;16.260;2023-11-22T03:17:11;5.80;99.90
48206;DHT22;33995;48.202;16.260;2023-11-22T03:19:37;5.80;99.90
48206;DHT22;33995;48.202;16.260;2023-11-22T03:22:04;5.80;99.90
48206;DHT22;33995;48.202;16.260;2023-11-22T03:24:33;5.80;99.90
48206;DHT22;33995;48.202;16.260;2023-11-22T03:27:04;5.90;99.90
48206;DHT22;33995;48.202;16.260;2023-11-22T03:29:32;5.80;99.90
48206;DHT22;33995;48.202;16.260;2023-11-22T03:32:00;5.70;99.90
48206;DHT22;33995;48.202;16.260;2023-11-22T03:34:27;5.70;99.90
48206;DHT22;33995;48.202;16.260;2023-11-22T03:36:54;5.70;99.90
48206;DHT22;33995;48.202;16.260;2023-11-22T03:39:21;5.80;99.90
48206;DHT22;33995;48.202;16.260;2023-11-22T03:41:49;5.80;99.90
48206;DHT22;33995;48.202;16.260;2023-11-22T03:44:17;5.70;99.90
48206;DHT22;33995;48.202;16.260;2023-11-22T03:46:44;5.70;99.90
48206;DHT22;33995;48.202;16.260;2023-11-22T03:49:11;5.80;99.90
48206;DHT22;33995;48.202;16.260;2023-11-22T03:51:39;5.80;99.90
48206;DHT22;33995;48.202;16.260;2023-11-22T03:54:06;5.80;99.90
48206;DHT22;33995;48.202;16.260;2023-11-22T03:56:33;5.70;99.90
48206;DHT22;33995;48.202;16.260;2023-11-22T03:59:00;5.70;99.90
48206;DHT22;33995;48.202;16.260;2023-11-22T04:01:27;5.50;99.90
48206;DHT22;33995;48.202;16.260;2023-11-22T04:03:54;5.60;99.90
48206;DHT22;33995;48.202;16.260;2023-11-22T04:06:22;5.50;99.90
48206;DHT22;33995;48.202;16.260;2023-11-22T04:08:49;5.50;99.90
48206;DHT22;33995;48.202;16.260;2023-11-22T04:11:16;5.60;99.90
48206;DHT22;33995;48.202;16.260;2023-11-22T04:13:45;5.60;99.90
48206;DHT22;33995;48.202;16.260;2023-11-22T04:16:12;5.50;99.90
48206;DHT22;33995;48.202;16.260;2023-11-22T04:18:40;5.60;99.90
48206;DHT22;33995;48.202;16.260;2023-11-22T04:21:08;5.50;99.90
48206;DHT22;33995;48.202;16.260;2023-11-22T04:23:35;5.30;99.90
48206;DHT22;33995;48.202;16.260;2023-11-22T04:26:03;5.40;99.90
48206;DHT22;33995;48.202;16.260;2023-11-22T04:28:30;5.40;99.90
48206;DHT22;33995;48.202;16.260;2023-11-22T04:30:57;5.40;99.90
48206;DHT22;33995;48.202;16.260;2023-11-22T04:33:25;5.50;99.90
48206;DHT22;33995;48.202;16.260;2023-11-22T04:35:55;5.40;99.90
48206;DHT22;33995;48.202;16.260;2023-11-22T04:38:22;5.40;99.90
48206;DHT22;33995;48.202;16.260;2023-11-22T04:40:49;5.30;99.90
48206;DHT22;33995;48.202;16.260;2023-11-22T04:43:16;5.40;99.90
48206;DHT22;33995;48.202;16.260;2023-11-22T04:45:43;5.30;99.90
48206;DHT22;33995;48.202;16.260;2023-11-22T04:48:10;5.30;99.90
48206;DHT22;33995;48.202;16.260;2023-11-22T04:50:37;5.20;99.90
48206;DHT22;33995;48.202;16.260;2023-11-22T04:53:04;5.30;99.90
48206;DHT22;33995;48.202;16.260;2023-11-22T04:55:31;5.20;99.90
48206;DHT22;33995;48.202;16.260;2023-11-22T04:57:59;5.30;99.90
48206;DHT22;33995;48.202;16.260;2023-11-22T05:00:25;5.10;99.90
48206;DHT22;33995;48.202;16.260;2023-11-22T05:02:52;5.10;99.90
48206;DHT22;33995;48.202;16.260;2023-11-22T05:05:24;5.10;99.90
48206;DHT22;33995;48.202;16.260;2023-11-22T05:07:51;5.20;99.90
48206;DHT22;33995;48.202;16.260;2023-11-22T05:10:19;5.20;99.90
48206;DHT22;33995;48.202;16.260;2023-11-22T05:12:46;5.20;99.90
48206;DHT22;33995;48.202;16.260;2023-11-22T05:15:14;5.30;99.90
48206;DHT22;33995;48.202;16.260;2023-11-22T05:17:41;5.10;99.90
48206;DHT22;33995;48.202;16.260;2023-11-22T05:20:08;5.10;99.90
48206;DHT22;33995;48.202;16.260;2023-11-22T05:22:38;5.10;99.90
48206;DHT22;33995;48.202;16.260;2023-11-22T05:25:05;5.10;99.90
48206;DHT22;33995;48.202;16.260;2023-11-22T05:27:33;4.90;99.90
48206;DHT22;33995;48.202;16.260;2023-11-22T05:30:00;5.00;99.90
48206;DHT22;33995;48.202;16.260;2023-11-22T05:32:28;5.00;99.90
48206;DHT22;33995;48.202;16.260;2023-11-22T05:34:57;4.90;99.90
48206;DHT22;33995;48.202;16.260;2023-11-22T05:37:25;5.00;99.90
48206;DHT22;33995;48.202;16.260;2023-11-22T05:39:53;4.90;99.90
48206;DHT22;33995;48.202;16.260;2023-11-22T05:42:20;5.00;99.90
48206;DHT22;33995;48.202;16.260;2023-11-22T05:44:47;4.90;99.90
48206;DHT22;33995;48.202;16.260;2023-11-22T05:47:14;4.90;99.90
48206;DHT22;33995;48.202;16.260;2023-11-22T05:49:41;4.80;99.90
48206;DHT22;33995;48.202;16.260;2023-11-22T05:52:08;4.90;99.90
48206;DHT22;33995;48.202;16.260;2023-11-22T05:54:35;4.80;99.90
48206;DHT22;33995;48.202;16.260;2023-11-22T05:57:03;4.80;99.90
48206;DHT22;33995;48.202;16.260;2023-11-22T05:59:31;4.90;99.90
48206;DHT22;33995;48.202;16.260;2023-11-22T06:01:58;4.80;99.90
48206;DHT22;33995;48.202;16.260;2023-11-22T06:04:25;4.70;99.90
48206;DHT22;33995;48.202;16.260;2023-11-22T06:06:52;4.80;99.90
48206;DHT22;33995;48.202;16.260;2023-11-22T06:09:19;4.70;99.90
48206;DHT22;33995;48.202;16.260;2023-11-22T06:11:46;4.70;99.90
48206;DHT22;33995;48.202;16.260;2023-11-22T06:14:12;4.70;99.90
48206;DHT22;33995;48.202;16.260;2023-11-22T06:16:39;4.70;99.90
48206;DHT22;33995;48.202;16.260;2023-11-22T06:19:06;4.60;99.90
48206;DHT22;33995;48.202;16.260;2023-11-22T06:21:34;4.60;99.90
48206;DHT22;33995;48.202;16.260;2023-11-22T06:24:02;4.60;99.90
48206;DHT22;33995;48.202;16.260;2023-11-22T06:26:30;4.70;99.90
48206;DHT22;33995;48.202;16.260;2023-11-22T06:28:57;4.60;99.90
48206;DHT22;33995;48.202;16.260;2023-11-22T06:31:24;4.60;99.90
48206;DHT22;33995;48.202;16.260;2023-11-22T06:33:51;4.70;99.90
48206;DHT22;33995;48.202;16.260;2023-11-22T06:36:19;4.60;99.90
48206;DHT22;33995;48.202;16.260;2023-11-22T06:38:46;4.60;99.90
48206;DHT22;33995;48.202;16.260;2023-11-22T06:41:13;4.60;99.90
48206;DHT22;33995;48.202;16.260;2023-11-22T06:43:40;4.70;99.90
48206;DHT22;33995;48.202;16.260;2023-11-22T06:46:08;4.60;99.90
48206;DHT22;33995;48.202;16.260;2023-11-22T06:48:35;4.70;99.90
48206;DHT22;33995;48.202;16.260;2023-11-22T06:51:02;4.70;99.90
48206;DHT22;33995;48.202;16.260;2023-11-22T06:53:29;4.70;99.90
48206;DHT22;33995;48.202;16.260;2023-11-22T06:55:56;4.70;99.90
48206;DHT22;33995;48.202;16.260;2023-11-22T06:58:23;4.70;99.90
48206;DHT22;33995;48.202;16.260;2023-11-22T07:00:50;4.70;99.90
48206;DHT22;33995;48.202;16.260;2023-11-22T07:03:17;4.70;99.90
48206;DHT22;33995;48.202;16.260;2023-11-22T07:05:44;4.60;99.90
48206;DHT22;33995;48.202;16.260;2023-11-22T07:08:12;4.60;99.90
48206;DHT22;33995;48.202;16.260;2023-11-22T07:10:43;4.50;99.90
48206;DHT22;33995;48.202;16.260;2023-11-22T07:13:12;4.30;99.90
48206;DHT22;33995;48.202;16.260;2023-11-22T07:15:41;4.20;99.90
48206;DHT22;33995;48.202;16.260;2023-11-22T07:18:08;4.40;99.90
48206;DHT22;33995;48.202;16.260;2023-11-22T07:20:37;4.40;99.90
48206;DHT22;33995;48.202;16.260;2023-11-22T07:23:06;4.40;99.90
48206;DHT22;33995;48.202;16.260;2023-11-22T07:25:33;4.40;99.90
48206;DHT22;33995;48.202;16.260;2023-11-22T07:28:00;4.40;99.90
48206;DHT22;33995;48.202;16.260;2023-11-22T07:30:27;4.50;99.90
48206;DHT22;33995;48.202;16.260;2023-11-22T07:32:57;4.50;99.90
48206;DHT22;33995;48.202;16.260;2023-11-22T07:35:26;4.50;99.90
48206;DHT22;33995;48.202;16.260;2023-11-22T07:37:55;4.40;99.90
48206;DHT22;33995;48.202;16.260;2023-11-22T07:40:22;4.50;99.90
48206;DHT22;33995;48.202;16.260;2023-11-22T07:42:49;4.40;99.90
48206;DHT22;33995;48.202;16.260;2023-11-22T07:45:17;4.30;99.90
48206;DHT22;33995;48.202;16.260;2023-11-22T07:47:44;4.40;99.90
48206;DHT22;33995;48.202;16.260;2023-11-22T07:50:11;4.50;99.90
48206;DHT22;33995;48.202;16.260;2023-11-22T07:52:39;4.50;99.90
48206;DHT22;33995;48.202;16.260;2023-11-22T07:55:08;4.40;99.90
48206;DHT22;33995;48.202;16.260;2023-11-22T07:57:38;4.40;99.90
48206;DHT22;33995;48.202;16.260;2023-11-22T08:00:06;4.40;99.90
48206;DHT22;33995;48.202;16.260;2023-11-22T08:02:37;4.30;99.90
48206;DHT22;33995;48.202;16.260;2023-11-22T08:05:10;4.40;99.90
48206;DHT22;33995;48.202;16.260;2023-11-22T08:07:39;4.50;99.90
48206;DHT22;33995;48.202;16.260;2023-11-22T08:10:08;4.50;99.90
48206;DHT22;33995;48.202;16.260;2023-11-22T08:12:48;4.30;99.90
48206;DHT22;33995;48.202;16.260;2023-11-22T08:15:19;4.40;99.90
48206;DHT22;33995;48.202;16.260;2023-11-22T08:17:47;4.40;99.90
48206;DHT22;33995;48.202;16.260;2023-11-22T08:20:14;4.30;99.90
48206;DHT22;33995;48.202;16.260;2023-11-22T08:22:45;4.40;99.90
48206;DHT22;33995;48.202;16.260;2023-11-22T08:25:12;4.40;99.90
48206;DHT22;33995;48.202;16.260;2023-11-22T08:27:40;4.40;99.90
48206;DHT22;33995;48.202;16.260;2023-11-22T08:30:10;4.40;99.90
48206;DHT22;33995;48.202;16.260;2023-11-22T08:32:43;4.40;99.90
48206;DHT22;33995;48.202;16.260;2023-11-22T08:35:11;4.40;99.90
48206;DHT22;33995;48.202;16.260;2023-11-22T08:37:40;4.40;99.90
48206;DHT22;33995;48.202;16.260;2023-11-22T08:40:09;4.40;99.90
48206;DHT22;33995;48.202;16.260;2023-11-22T08:42:41;4.30;99.90
48206;DHT22;33995;48.202;16.260;2023-11-22T08:45:09;4.40;99.90
48206;DHT22;33995;48.202;16.260;2023-11-22T08:47:41;4.50;99.90
48206;DHT22;33995;48.202;16.260;2023-11-22T08:50:09;4.40;99.90
48206;DHT22;33995;48.202;16.260;2023-11-22T08:52:39;4.30;99.90
48206;DHT22;33995;48.202;16.260;2023-11-22T08:55:09;4.50;99.90
48206;DHT22;33995;48.202;16.260;2023-11-22T08:57:36;4.60;99.90
48206;DHT22;33995;48.202;16.260;2023-11-22T09:00:08;4.70;99.90
48206;DHT22;33995;48.202;16.260;2023-11-22T09:02:38;4.80;99.90
48206;DHT22;33995;48.202;16.260;2023-11-22T09:05:08;4.80;99.90
48206;DHT22;33995;48.202;16.260;2023-11-22T09:07:36;4.80;99.90
48206;DHT22;33995;48.202;16.260;2023-11-22T09:10:05;4.60;99.90
48206;DHT22;33995;48.202;16.260;2023-11-22T09:12:42;4.60;99.90
48206;DHT22;33995;48.202;16.260;2023-11-22T09:15:12;4.40;99.90
48206;DHT22;33995;48.202;16.260;2023-11-22T09:17:46;4.40;99.90
48206;DHT22;33995;48.202;16.260;2023-11-22T09:20:17;4.40;99.90
48206;DHT22;33995;48.202;16.260;2023-11-22T09:22:53;4.40;99.90
48206;DHT22;33995;48.202;16.260;2023-11-22T09:25:26;4.50;99.90
48206;DHT22;33995;48.202;16.260;2023-11-22T09:27:55;4.60;99.90
48206;DHT22;33995;48.202;16.260;2023-11-22T09:30:30;4.60;99.90
48206;DHT22;33995;48.202;16.260;2023-11-22T09:33:08;4.50;99.90
48206;DHT22;33995;48.202;16.260;2023-11-22T09:35:39;4.70;99.90
48206;DHT22;33995;48.202;16.260;2023-11-22T09:38:07;4.50;99.90
48206;DHT22;33995;48.202;16.260;2023-11-22T09:40:45;4.50;99.90
48206;DHT22;33995;48.202;16.260;2023-11-22T09:43:13;4.50;99.90
48206;DHT22;33995;48.202;16.260;2023-11-22T09:45:49;4.50;99.90
48206;DHT22;33995;48.202;16.260;2023-11-22T09:48:26;4.60;99.90
48206;DHT22;33995;48.202;16.260;2023-11-22T09:53:41;4.60;99.90
48206;DHT22;33995;48.202;16.260;2023-11-22T09:56:12;4.60;99.90
48206;DHT22;33995;48.202;16.260;2023-11-22T09:58:42;4.70;99.90
48206;DHT22;33995;48.202;16.260;2023-11-22T10:01:11;4.70;99.90
48206;DHT22;33995;48.202;16.260;2023-11-22T10:03:38;4.80;99.90
48206;DHT22;33995;48.202;16.260;2023-11-22T10:06:06;4.80;99.90
48206;DHT22;33995;48.202;16.260;2023-11-22T10:08:33;4.90;99.90
48206;DHT22;33995;48.202;16.260;2023-11-22T10:11:03;4.80;99.90
48206;DHT22;33995;48.202;16.260;2023-11-22T10:13:31;4.70;99.90
48206;DHT22;33995;48.202;16.260;2023-11-22T10:16:12;4.70;99.90
48206;DHT22;33995;48.202;16.260;2023-11-22T10:18:44;4.40;99.90
48206;DHT22;33995;48.202;16.260;2023-11-22T10:21:27;4.60;99.90
48206;DHT22;33995;48.202;16.260;2023-11-22T10:23:56;4.60;99.90
48206;DHT22;33995;48.202;16.260;2023-11-22T10:26:24;4.60;99.90
48206;DHT22;33995;48.202;16.260;2023-11-22T10:28:52;4.60;99.90
48206;DHT22;33995;48.202;16.260;2023-11-22T10:31:20;4.80;99.90
48206;DHT22;33995;48.202;16.260;2023-11-22T10:33:51;4.80;99.90
48206;DHT22;33995;48.202;16.260;2023-11-22T10:36:21;4.90;99.90
48206;DHT22;33995;48.202;16.260;2023-11-22T10:38:48;5.00;99.90
48206;DHT22;33995;48.202;16.260;2023-11-22T10:41:16;4.90;99.90
48206;DHT22;33995;48.202;16.260;2023-11-22T10:43:44;4.80;99.90
48206;DHT22;33995;48.202;16.260;2023-11-22T10:46:13;4.90;99.90
48206;DHT22;33995;48.202;16.260;2023-11-22T10:48:41;4.80;99.90
48206;DHT22;33995;48.202;16.260;2023-11-22T10:51:12;4.90;99.90
48206;DHT22;33995;48.202;16.260;2023-11-22T10:53:48;4.80;99.90
48206;DHT22;33995;48.202;16.260;2023-11-22T10:56:17;4.60;99.90
48206;DHT22;33995;48.202;16.260;2023-11-22T10:58:50;4.60;99.90
48206;DHT22;33995;48.202;16.260;2023-11-22T11:01:18;4.60;99.90
48206;DHT22;33995;48.202;16.260;2023-11-22T11:03:55;4.70;99.90
48206;DHT22;33995;48.202;16.260;2023-11-22T11:06:26;4.60;99.90
48206;DHT22;33995;48.202;16.260;2023-11-22T11:09:00;4.50;99.90
48206;DHT22;33995;48.202;16.260;2023-11-22T11:11:28;4.60;99.90
48206;DHT22;33995;48.202;16.260;2023-11-22T11:14:00;4.60;99.90
48206;DHT22;33995;48.202;16.260;2023-11-22T11:16:29;4.70;99.90
48206;DHT22;33995;48.202;16.260;2023-11-22T11:18:58;4.70;99.90
48206;DHT22;33995;48.202;16.260;2023-11-22T11:21:25;4.70;99.90
48206;DHT22;33995;48.202;16.260;2023-11-22T11:23:55;4.60;99.90
48206;DHT22;33995;48.202;16.260;2023-11-22T11:26:32;4.70;99.90
48206;DHT22;33995;48.202;16.260;2023-11-22T11:28:59;4.90;99.90
48206;DHT22;33995;48.202;16.260;2023-11-22T11:31:31;4.80;99.90
48206;DHT22;33995;48.202;16.260;2023-11-22T11:34:00;4.80;99.90
48206;DHT22;33995;48.202;16.260;2023-11-22T11:36:29;4.90;99.90
48206;DHT22;33995;48.202;16.260;2023-11-22T11:39:02;4.80;99.90
48206;DHT22;33995;48.202;16.260;2023-11-22T11:41:33;4.80;99.90
48206;DHT22;33995;48.202;16.260;2023-11-22T11:44:02;4.90;99.90
48206;DHT22;33995;48.202;16.260;2023-11-22T11:46:30;4.70;99.90
48206;DHT22;33995;48.202;16.260;2023-11-22T11:48:57;4.80;99.90
48206;DHT22;33995;48.202;16.260;2023-11-22T11:51:26;4.90;99.90
48206;DHT22;33995;48.202;16.260;2023-11-22T11:53:54;4.80;99.90
48206;DHT22;33995;48.202;16.260;2023-11-22T11:56:22;4.80;99.90
48206;DHT22;33995;48.202;16.260;2023-11-22T11:58:50;4.80;99.90
48206;DHT22;33995;48.202;16.260;2023-11-22T12:01:18;4.80;99.90
48206;DHT22;33995;48.202;16.260;2023-11-22T12:03:47;4.80;99.90
48206;DHT22;33995;48.202;16.260;2023-11-22T12:06:18;4.80;99.90
48206;DHT22;33995;48.202;16.260;2023-11-22T12:08:46;4.80;99.90
48206;DHT22;33995;48.202;16.260;2023-11-22T12:11:14;4.70;99.90
48206;DHT22;33995;48.202;16.260;2023-11-22T12:13:43;4.70;99.90
48206;DHT22;33995;48.202;16.260;2023-11-22T12:16:17;4.50;99.90
48206;DHT22;33995;48.202;16.260;2023-11-22T12:18:47;4.50;99.90
48206;DHT22;33995;48.202;16.260;2023-11-22T12:21:16;4.60;99.90
48206;DHT22;33995;48.202;16.260;2023-11-22T12:23:45;4.60;99.90
48206;DHT22;33995;48.202;16.260;2023-11-22T12:26:17;4.70;99.90
48206;DHT22;33995;48.202;16.260;2023-11-22T12:28:49;4.70;99.90
48206;DHT22;33995;48.202;16.260;2023-11-22T12:31:31;4.70;99.90
48206;DHT22;33995;48.202;16.260;2023-11-22T12:34:04;4.60;99.90
48206;DHT22;33995;48.202;16.260;2023-11-22T12:36:36;4.70;99.90
48206;DHT22;33995;48.202;16.260;2023-11-22T12:39:09;4.60;99.90
48206;DHT22;33995;48.202;16.260;2023-11-22T12:41:53;4.60;99.90
48206;DHT22;33995;48.202;16.260;2023-11-22T12:44:50;4.60;99.90
48206;DHT22;33995;48.202;16.260;2023-11-22T12:47:33;4.60;99.90
48206;DHT22;33995;48.202;16.260;2023-11-22T12:50:03;4.60;99.90
48206;DHT22;33995;48.202;16.260;2023-11-22T12:52:34;4.50;99.90
48206;DHT22;33995;48.202;16.260;2023-11-22T12:55:01;4.50;99.90
48206;DHT22;33995;48.202;16.260;2023-11-22T12:57:28;4.50;99.90
48206;DHT22;33995;48.202;16.260;2023-11-22T12:59:55;4.50;99.90
48206;DHT22;33995;48.202;16.260;2023-11-22T13:02:22;4.50;99.90
48206;DHT22;33995;48.202;16.260;2023-11-22T13:04:49;4.50;99.90
48206;DHT22;33995;48.202;16.260;2023-11-22T13:07:16;4.50;99.90
48206;DHT22;33995;48.202;16.260;2023-11-22T13:09:46;4.70;99.90
48206;DHT22;33995;48.202;16.260;2023-11-22T13:12:13;4.60;99.90
48206;DHT22;33995;48.202;16.260;2023-11-22T13:14:40;4.60;99.90
48206;DHT22;33995;48.202;16.260;2023-11-22T13:17:07;4.60;99.90
48206;DHT22;33995;48.202;16.260;2023-11-22T13:19:36;4.60;99.90
48206;DHT22;33995;48.202;16.260;2023-11-22T13:22:04;4.60;99.90
48206;DHT22;33995;48.202;16.260;2023-11-22T13:24:32;4.60;99.90
48206;DHT22;33995;48.202;16.260;2023-11-22T13:26:59;4.60;99.90
48206;DHT22;33995;48.202;16.260;2023-11-22T13:29:26;4.60;99.90
48206;DHT22;33995;48.202;16.260;2023-11-22T13:31:53;4.60;99.90
48206;DHT22;33995;48.202;16.260;2023-11-22T13:34:20;4.60;99.90
48206;DHT22;33995;48.202;16.260;2023-11-22T13:36:47;4.60;99.90
48206;DHT22;33995;48.202;16.260;2023-11-22T13:39:14;4.70;99.90
48206;DHT22;33995;48.202;16.260;2023-11-22T13:41:44;4.60;99.90
48206;DHT22;33995;48.202;16.260;2023-11-22T13:44:12;4.50;99.90
48206;DHT22;33995;48.202;16.260;2023-11-22T13:46:40;4.60;99.90
48206;DHT22;33995;48.202;16.260;2023-11-22T13:49:07;4.50;99.90
48206;DHT22;33995;48.202;16.260;2023-11-22T13:51:34;4.60;99.90
48206;DHT22;33995;48.202;16.260;2023-11-22T13:54:02;4.60;99.90
48206;DHT22;33995;48.202;16.260;2023-11-22T13:56:31;4.50;99.90
48206;DHT22;33995;48.202;16.260;2023-11-22T13:58:58;4.40;99.90
48206;DHT22;33995;48.202;16.260;2023-11-22T14:01:26;4.40;99.90
48206;DHT22;33995;48.202;16.260;2023-11-22T14:03:53;4.50;99.90
48206;DHT22;33995;48.202;16.260;2023-11-22T14:06:20;4.50;99.90
48206;DHT22;33995;48.202;16.260;2023-11-22T14:08:47;4.40;99.90
48206;DHT22;33995;48.202;16.260;2023-11-22T14:11:14;4.40;99.90
48206;DHT22;33995;48.202;16.260;2023-11-22T14:13:41;4.50;99.90
48206;DHT22;33995;48.202;16.260;2023-11-22T14:16:08;4.40;99.90
48206;DHT22;33995;48.202;16.260;2023-11-22T14:18:36;4.40;99.90
48206;DHT22;33995;48.202;16.260;2023-11-22T14:21:03;4.50;99.90
48206;DHT22;33995;48.202;16.260;2023-11-22T14:23:31;4.40;99.90
48206;DHT22;33995;48.202;16.260;2023-11-22T14:25:58;4.50;99.90
48206;DHT22;33995;48.202;16.260;2023-11-22T14:28:26;4.50;99.90
48206;DHT22;33995;48.202;16.260;2023-11-22T14:30:57;4.30;99.90
48206;DHT22;33995;48.202;16.260;2023-11-22T14:33:25;4.50;99.90
48206;DHT22;33995;48.202;16.260;2023-11-22T14:35:52;4.50;99.90
48206;DHT22;33995;48.202;16.260;2023-11-22T14:38:19;4.40;99.90
48206;DHT22;33995;48.202;16.260;2023-11-22T14:40:48;4.50;99.90
48206;DHT22;33995;48.202;16.260;2023-11-22T14:43:15;4.50;99.90
48206;DHT22;33995;48.202;16.260;2023-11-22T14:45:42;4.40;99.90
48206;DHT22;33995;48.202;16.260;2023-11-22T14:48:09;4.40;99.90
48206;DHT22;33995;48.202;16.260;2023-11-22T14:50:40;4.40;99.90
48206;DHT22;33995;48.202;16.260;2023-11-22T14:53:08;4.30;99.90
48206;DHT22;33995;48.202;16.260;2023-11-22T14:55:35;4.40;99.90
48206;DHT22;33995;48.202;16.260;2023-11-22T14:58:07;4.30;99.90
48206;DHT22;33995;48.202;16.260;2023-11-22T15:00:35;4.30;99.90
48206;DHT22;33995;48.202;16.260;2023-11-22T15:03:03;4.40;99.90
48206;DHT22;33995;48.202;16.260;2023-11-22T15:05:32;4.40;99.90
48206;DHT22;33995;48.202;16.260;2023-11-22T15:07:59;4.40;99.90
48206;DHT22;33995;48.202;16.260;2023-11-22T15:10:26;4.40;99.90
48206;DHT22;33995;48.202;16.260;2023-11-22T15:12:53;4.40;99.90
48206;DHT22;33995;48.202;16.260;2023-11-22T15:15:22;4.40;99.90
48206;DHT22;33995;48.202;16.260;2023-11-22T15:17:52;4.30;99.90
48206;DHT22;33995;48.202;16.260;2023-11-22T15:20:19;4.30;99.90
48206;DHT22;33995;48.202;16.260;2023-11-22T15:22:46;4.30;99.90
48206;DHT22;33995;48.202;16.260;2023-11-22T15:25:13;4.40;99.90
48206;DHT22;33995;48.202;16.260;2023-11-22T15:27:42;4.40;99.90
48206;DHT22;33995;48.202;16.260;2023-11-22T15:30:09;4.40;99.90
48206;DHT22;33995;48.202;16.260;2023-11-22T15:32:39;4.30;99.90
48206;DHT22;33995;48.202;16.260;2023-11-22T15:35:06;4.30;99.90
48206;DHT22;33995;48.202;16.260;2023-11-22T15:37:33;4.40;99.90
48206;DHT22;33995;48.202;16.260;2023-11-22T15:40:00;4.40;99.90
48206;DHT22;33995;48.202;16.260;2023-11-22T15:42:28;4.50;99.90
48206;DHT22;33995;48.202;16.260;2023-11-22T15:44:56;4.50;99.90